createdAt,value
2019-01-31T00:00:56.246Z,95831.91
2019-01-31T00:03:37.703Z,95835.30
2019-01-31T00:06:40.246Z,95838.17
2019-01-31T00:09:20.386Z,95833.80
2019-01-31T00:12:03.627Z,95832.06
2019-01-31T00:14:40.131Z,95846.52
2019-01-31T00:17:25.638Z,95838.67
2019-01-31T00:20:20.781Z,95843.39
2019-01-31T00:23:20.630Z,95834.93
2019-01-31T00:26:14.592Z,95832.36
2019-01-31T00:29:00.872Z,95827.84
2019-01-31T00:32:01.954Z,95830.49
2019-01-31T00:34:52.490Z,95816.66
2019-01-31T00:37:52.830Z,95803.97
2019-01-31T00:40:38.949Z,95798.54
2019-01-31T00:43:20.670Z,95816.23
2019-01-31T00:46:12.158Z,95833.59
2019-01-31T00:49:03.744Z,95852.27
2019-01-31T00:51:40.753Z,95851.31
2019-01-31T00:54:29.449Z,95859.25
2019-01-31T00:57:19.988Z,95874.05
2019-01-31T01:00:12.270Z,95877.59
2019-01-31T01:02:59.196Z,95885.17
2019-01-31T01:05:51.787Z,95888.06
2019-01-31T01:08:36.618Z,95893.83
2019-01-31T01:11:18.266Z,95888.13
2019-01-31T01:14:02.613Z,95894.29
2019-01-31T01:16:47.408Z,95905.67
2019-01-31T01:19:36.024Z,95917.11
2019-01-31T01:22:15.193Z,95922.12
2019-01-31T01:24:53.854Z,95926.98
2019-01-31T01:27:33.580Z,95931.27
2019-01-31T01:30:22.185Z,95929.49
2019-01-31T01:33:10.002Z,95930.84
2019-01-31T01:35:42.805Z,95938.94
2019-01-31T01:38:19.208Z,95941.56
2019-01-31T01:41:10.252Z,95947.88
2019-01-31T01:43:49.896Z,95955.99
2019-01-31T01:46:26.102Z,95959.02
2019-01-31T01:49:11.686Z,95944.80
2019-01-31T01:51:52.468Z,95956.80
2019-01-31T01:54:51.088Z,95961.96
2019-01-31T01:57:27.553Z,95952.55
2019-01-31T02:00:11.898Z,95959.38
2019-01-31T02:02:54.286Z,95959.52
2019-01-31T02:05:38.987Z,95960.78
2019-01-31T02:08:24.183Z,95962.09
2019-01-31T02:11:00.635Z,95961.29
2019-01-31T02:13:45.368Z,95959.20
2019-01-31T02:16:35.281Z,95957.89
2019-01-31T02:19:19.545Z,95966.19
2019-01-31T02:22:04.724Z,95959.64
2019-01-31T02:24:41.247Z,95962.82
2019-01-31T02:27:24.633Z,95966.81
2019-01-31T02:30:07.676Z,95969.19
2019-01-31T02:33:11.879Z,95971.45
2019-01-31T02:35:50.601Z,95973.02
2019-01-31T02:38:34.575Z,95966.03
2019-01-31T02:41:29.716Z,95966.78
2019-01-31T02:44:37.748Z,95969.77
2019-01-31T02:47:37.481Z,95972.17
2019-01-31T02:50:31.502Z,95978.30
2019-01-31T02:53:10.014Z,95985.95
2019-01-31T02:56:07.636Z,95988.98
2019-01-31T02:58:40.443Z,95989.59
2019-01-31T03:01:17.762Z,95988.67
2019-01-31T03:03:59.462Z,95999.89
2019-01-31T03:07:09.435Z,95995.30
2019-01-31T03:09:55.246Z,95994.90
2019-01-31T03:12:50.886Z,95999.68
2019-01-31T03:15:24.750Z,95978.38
2019-01-31T03:18:03.291Z,95980.04
2019-01-31T03:20:36.103Z,95985.03
2019-01-31T03:23:09.052Z,95983.23
2019-01-31T03:25:41.735Z,95996.25
2019-01-31T03:28:29.330Z,95998.66
2019-01-31T03:31:30.635Z,96001.19
2019-01-31T03:34:24.320Z,95996.89
2019-01-31T03:37:29.709Z,95999.23
2019-01-31T03:40:37.945Z,96011.06
2019-01-31T03:43:31.490Z,96012.50
2019-01-31T03:46:16.486Z,96016.34
2019-01-31T03:49:08.972Z,96011.28
2019-01-31T03:52:18.117Z,96011.44
2019-01-31T03:54:52.511Z,96008.63
2019-01-31T03:57:34.187Z,96009.89
2019-01-31T04:00:32.326Z,96019.34
2019-01-31T04:03:26.234Z,96025.13
2019-01-31T04:06:00.545Z,96024.50
2019-01-31T04:08:30.782Z,96015.67
2019-01-31T04:11:04.854Z,96024.52
2019-01-31T04:13:34.712Z,96024.67
2019-01-31T04:16:06.484Z,96025.23
2019-01-31T04:18:38.248Z,96024.00
2019-01-31T04:21:09.034Z,96027.89
2019-01-31T04:23:38.864Z,96026.02
2019-01-31T04:26:09.343Z,96018.45
2019-01-31T04:28:40.090Z,96007.34
2019-01-31T04:31:09.981Z,96011.50
2019-01-31T04:33:40.955Z,96021.17
2019-01-31T04:36:11.097Z,96011.27
2019-01-31T04:38:43.190Z,96018.19
2019-01-31T04:41:12.998Z,96024.33
2019-01-31T04:43:43.820Z,96025.74
2019-01-31T04:46:14.946Z,96042.44
2019-01-31T04:48:44.768Z,96047.95
2019-01-31T04:51:15.699Z,96048.70
2019-01-31T04:53:47.818Z,96050.63
2019-01-31T04:56:18.093Z,96044.89
2019-01-31T04:58:48.332Z,96047.39
2019-01-31T05:01:26.639Z,96051.19
2019-01-31T05:04:06.483Z,96055.14
2019-01-31T05:06:47.446Z,96057.27
2019-01-31T05:09:24.498Z,96061.45
2019-01-31T05:12:07.986Z,96053.45
2019-01-31T05:14:49.157Z,96063.31
2019-01-31T05:17:26.796Z,96058.86
2019-01-31T05:20:01.741Z,96051.11
2019-01-31T05:22:33.972Z,96051.72
2019-01-31T05:25:06.609Z,96040.64
2019-01-31T05:27:37.361Z,96041.52
2019-01-31T05:30:13.657Z,96060.99
2019-01-31T05:32:44.885Z,96051.02
2019-01-31T05:35:16.631Z,96055.09
2019-01-31T05:37:47.119Z,96062.16
2019-01-31T05:40:17.397Z,96066.73
2019-01-31T05:42:48.587Z,96065.52
2019-01-31T05:45:19.021Z,96069.30
2019-01-31T05:47:49.579Z,96075.98
2019-01-31T05:50:21.054Z,96079.32
2019-01-31T05:52:51.646Z,96083.63
2019-01-31T05:55:25.438Z,96092.02
2019-01-31T05:57:55.704Z,96091.41
2019-01-31T06:00:28.568Z,96095.48
2019-01-31T06:03:02.030Z,96085.07
2019-01-31T06:05:35.679Z,96079.00
2019-01-31T06:08:07.307Z,96081.58
2019-01-31T06:10:37.634Z,96092.05
2019-01-31T06:13:07.442Z,96100.48
2019-01-31T06:15:38.844Z,96092.73
2019-01-31T06:18:08.938Z,96098.45
2019-01-31T06:20:55.292Z,96109.34
2019-01-31T06:24:07.594Z,96107.85
2019-01-31T06:27:03.485Z,96100.06
2019-01-31T06:29:50.743Z,96098.45
2019-01-31T06:32:26.237Z,96097.03
2019-01-31T06:34:57.090Z,96101.13
2019-01-31T06:37:30.816Z,96092.67
2019-01-31T06:40:01.306Z,96080.20
2019-01-31T06:42:34.825Z,96081.20
2019-01-31T06:45:08.012Z,96074.91
2019-01-31T06:47:37.837Z,96096.38
2019-01-31T06:50:09.043Z,96097.70
2019-01-31T06:52:43.290Z,96102.66
2019-01-31T06:55:15.137Z,96108.42
2019-01-31T06:57:46.107Z,96119.89
2019-01-31T07:00:23.358Z,96118.67
2019-01-31T07:02:58.191Z,96132.78
2019-01-31T07:05:28.476Z,96129.03
2019-01-31T07:07:58.261Z,96132.00
2019-01-31T07:10:28.313Z,96139.61
2019-01-31T07:12:58.116Z,96145.91
2019-01-31T07:15:41.202Z,96143.58
2019-01-31T07:18:20.094Z,96149.73
2019-01-31T07:20:57.729Z,96149.69
2019-01-31T07:23:39.697Z,96132.89
2019-01-31T07:26:15.043Z,96140.11
2019-01-31T07:28:47.740Z,96139.89
2019-01-31T07:31:17.584Z,96153.52
2019-01-31T07:33:47.458Z,96161.02
2019-01-31T07:36:17.273Z,96166.24
2019-01-31T07:38:47.085Z,96175.14
2019-01-31T07:41:16.865Z,96174.13
2019-01-31T07:43:46.939Z,96186.11
2019-01-31T07:46:17.038Z,96188.04
2019-01-31T07:48:46.829Z,96183.57
2019-01-31T07:51:16.647Z,96174.48
2019-01-31T07:53:46.444Z,96176.35
2019-01-31T07:56:16.229Z,96196.30
2019-01-31T07:58:46.062Z,96201.23
2019-01-31T08:01:15.893Z,96199.19
2019-01-31T08:03:50.071Z,96200.45
2019-01-31T08:06:20.325Z,96202.70
2019-01-31T08:08:50.416Z,96205.13
2019-01-31T08:11:20.236Z,96207.34
2019-01-31T08:13:50.576Z,96217.93
2019-01-31T08:16:22.840Z,96223.72
2019-01-31T08:18:53.473Z,96227.66
2019-01-31T08:21:25.149Z,96221.08
2019-01-31T08:23:55.095Z,96206.52
2019-01-31T08:26:28.378Z,96210.99
2019-01-31T08:28:59.315Z,96215.42
2019-01-31T08:31:29.111Z,96201.62
2019-01-31T08:33:58.876Z,96201.02
2019-01-31T08:36:28.701Z,96204.66
2019-01-31T08:38:58.610Z,96213.64
2019-01-31T08:41:30.475Z,96226.16
2019-01-31T08:44:00.296Z,96228.80
2019-01-31T08:46:30.613Z,96225.33
2019-01-31T08:49:02.492Z,96234.81
2019-01-31T08:51:33.471Z,96219.94
2019-01-31T08:54:04.074Z,96224.01
2019-01-31T08:56:46.804Z,96225.11
2019-01-31T08:59:20.414Z,96217.82
2019-01-31T09:01:50.175Z,96214.47
2019-01-31T09:04:19.986Z,96225.16
2019-01-31T09:06:51.219Z,96224.30
2019-01-31T09:09:23.611Z,96227.94
2019-01-31T09:11:56.315Z,96229.55
2019-01-31T09:14:26.271Z,96222.71
2019-01-31T09:16:58.792Z,96233.82
2019-01-31T09:19:30.390Z,96230.72
2019-01-31T09:22:06.093Z,96228.30
2019-01-31T09:24:58.375Z,96230.51
2019-01-31T09:27:39.387Z,96221.30
2019-01-31T09:30:47.503Z,96229.09
2019-01-31T09:33:49.178Z,96235.86
2019-01-31T09:36:51.579Z,96227.06
2019-01-31T09:39:53.370Z,96236.97
2019-01-31T09:42:50.421Z,96218.61
2019-01-31T09:45:46.364Z,96232.61
2019-01-31T09:48:30.233Z,96238.38
2019-01-31T09:51:11.610Z,96233.06
2019-01-31T09:54:05.211Z,96235.34
2019-01-31T09:56:42.336Z,96233.72
2019-01-31T09:59:39.758Z,96237.41
2019-01-31T10:02:28.647Z,96236.02
2019-01-31T10:05:15.153Z,96241.40
2019-01-31T10:07:54.192Z,96244.59
2019-01-31T10:10:50.101Z,96258.37
2019-01-31T10:29:41.002Z,96280.78
2019-01-31T10:52:30.557Z,96287.60
2019-01-31T10:57:55.754Z,96270.42
2019-01-31T11:00:45.449Z,96266.39
2019-01-31T11:03:24.994Z,96268.38
2019-01-31T11:06:17.982Z,96260.55
2019-01-31T11:09:01.691Z,96257.98
2019-01-31T11:11:56.302Z,96262.53
2019-01-31T11:14:35.963Z,96262.53
2019-01-31T11:17:15.916Z,96254.22
2019-01-31T11:20:24.688Z,96245.96
2019-01-31T11:23:22.673Z,96254.00
2019-01-31T11:26:20.376Z,96261.34
2019-01-31T11:29:25.396Z,96261.34
2019-01-31T11:32:24.953Z,96269.11
2019-01-31T11:35:08.518Z,96248.95
2019-01-31T11:38:20.507Z,96240.36
2019-01-31T11:41:15.550Z,96239.66
2019-01-31T11:44:13.579Z,96239.66
2019-01-31T11:46:53.514Z,96231.75
2019-01-31T11:49:35.847Z,96238.00
2019-01-31T11:52:26.928Z,96230.61
2019-01-31T11:55:18.725Z,96232.59
2019-01-31T11:58:09.526Z,96227.91
2019-01-31T12:00:42.028Z,96235.81
2019-01-31T12:03:15.889Z,96227.44
2019-01-31T12:05:46.892Z,96222.66
2019-01-31T12:08:16.623Z,96228.25
2019-01-31T12:10:46.488Z,96222.34
2019-01-31T12:13:23.280Z,96217.91
2019-01-31T12:15:47.988Z,96220.59
2019-01-31T12:18:18.041Z,96227.59
2019-01-31T12:20:47.833Z,96229.64
2019-01-31T12:23:17.805Z,96214.67
2019-01-31T12:25:47.630Z,96234.53
2019-01-31T12:28:17.427Z,96217.91
2019-01-31T12:30:47.247Z,96209.33
2019-01-31T12:33:19.937Z,96219.25
2019-01-31T12:35:50.036Z,96204.55
2019-01-31T12:38:19.811Z,96194.88
2019-01-31T12:40:49.619Z,96193.28
2019-01-31T12:43:19.773Z,96188.19
2019-01-31T12:45:49.556Z,96177.19
2019-01-31T12:48:19.344Z,96185.31
2019-01-31T12:50:49.443Z,96188.22
2019-01-31T12:53:19.431Z,96190.88
2019-01-31T12:55:49.343Z,96198.83
2019-01-31T12:58:19.299Z,96191.63
2019-01-31T13:00:49.290Z,96190.33
2019-01-31T13:03:24.162Z,96179.34
2019-01-31T13:05:54.593Z,96179.34
2019-01-31T13:08:24.585Z,96191.78
2019-01-31T13:10:54.445Z,96192.85
2019-01-31T13:13:24.341Z,96159.20
2019-01-31T13:15:54.286Z,96159.20
2019-01-31T13:18:24.226Z,96153.77
2019-01-31T13:20:54.294Z,96148.01
2019-01-31T13:23:24.111Z,96142.05
2019-01-31T13:25:54.100Z,96144.12
2019-01-31T13:28:24.946Z,96138.84
2019-01-31T13:30:54.940Z,96157.05
2019-01-31T13:33:25.086Z,96137.10
2019-01-31T13:35:54.913Z,96137.10
2019-01-31T13:38:24.821Z,96130.25
2019-01-31T13:40:54.752Z,96136.75
2019-01-31T13:43:24.629Z,96147.95
2019-01-31T13:46:08.722Z,96136.63
2019-01-31T13:48:47.595Z,96150.08
2019-01-31T13:51:25.012Z,96140.25
2019-01-31T13:54:04.891Z,96137.56
2019-01-31T13:56:45.834Z,96121.73
2019-01-31T13:59:12.044Z,96138.65
2019-01-31T14:01:42.515Z,96134.63
2019-01-31T14:04:14.717Z,96140.05
2019-01-31T14:06:50.136Z,96143.56
2019-01-31T14:09:20.957Z,96145.15
2019-01-31T14:11:51.668Z,96146.46
2019-01-31T14:14:22.175Z,96140.33
2019-01-31T14:16:52.402Z,96137.63
2019-01-31T14:19:22.547Z,96140.84
2019-01-31T14:21:57.359Z,96142.42
2019-01-31T14:24:27.707Z,96142.14
2019-01-31T14:26:59.182Z,96134.89
2019-01-31T14:29:29.643Z,96130.05
2019-01-31T14:32:02.143Z,96123.38
2019-01-31T14:34:35.143Z,96119.36
2019-01-31T14:37:09.793Z,96125.48
2019-01-31T14:39:40.785Z,96130.30
2019-01-31T14:42:14.430Z,96150.42
2019-01-31T14:44:45.178Z,96150.02
2019-01-31T14:47:20.574Z,96153.96
2019-01-31T14:49:50.381Z,96172.91
2019-01-31T14:52:24.316Z,96165.56
2019-01-31T14:54:54.211Z,96173.96
2019-01-31T14:57:28.522Z,96169.31
2019-01-31T14:59:59.175Z,96169.31
2019-01-31T15:02:29.161Z,96181.05
2019-01-31T15:04:59.012Z,96174.22
2019-01-31T15:07:32.421Z,96174.22
2019-01-31T15:10:02.159Z,96176.48
2019-01-31T15:12:36.151Z,96166.75
2019-01-31T15:15:10.278Z,96175.81
2019-01-31T15:17:42.078Z,96162.13
2019-01-31T15:20:20.804Z,96163.14
2019-01-31T15:22:51.609Z,96171.11
2019-01-31T15:25:21.634Z,96160.83
2019-01-31T15:27:53.531Z,96182.45
2019-01-31T15:30:32.200Z,96176.23
2019-01-31T15:33:05.569Z,96176.35
2019-01-31T15:35:35.466Z,96176.35
2019-01-31T15:38:05.746Z,96183.69
2019-01-31T15:40:39.013Z,96177.52
2019-01-31T15:43:09.301Z,96181.14
2019-01-31T15:45:40.483Z,96178.27
2019-01-31T15:48:11.024Z,96179.34
2019-01-31T15:50:41.315Z,96171.80
2019-01-31T15:53:11.332Z,96170.97
2019-01-31T15:55:44.136Z,96172.23
2019-01-31T15:58:28.899Z,96172.23
2019-01-31T16:01:11.024Z,96166.45
2019-01-31T16:04:01.998Z,96166.45
2019-01-31T16:06:46.646Z,96172.02
2019-01-31T16:09:27.133Z,96172.02
2019-01-31T16:12:02.994Z,96173.50
2019-01-31T16:14:33.949Z,96177.23
2019-01-31T16:17:08.080Z,96177.23
2019-01-31T16:19:44.221Z,96183.80
2019-01-31T16:22:27.991Z,96192.86
2019-01-31T16:25:06.928Z,96175.77
2019-01-31T16:27:42.317Z,96183.92
2019-01-31T16:30:23.613Z,96183.92
2019-01-31T16:33:01.510Z,96191.62
2019-01-31T16:35:37.433Z,96183.66
2019-01-31T16:38:10.659Z,96199.61
2019-01-31T16:40:44.880Z,96199.61
2019-01-31T16:43:17.988Z,96191.35
2019-01-31T16:45:49.839Z,96195.75
2019-01-31T16:48:25.722Z,96197.70
2019-01-31T16:50:55.922Z,96211.20
2019-01-31T16:53:26.101Z,96209.86
2019-01-31T16:55:56.033Z,96218.00
2019-01-31T16:58:26.686Z,96213.40
2019-01-31T17:00:59.318Z,96213.40
2019-01-31T17:03:33.190Z,96200.07
2019-01-31T17:06:05.970Z,96204.95
2019-01-31T17:08:37.386Z,96201.91
2019-01-31T17:11:07.363Z,96211.42
2019-01-31T17:13:41.499Z,96225.80
2019-01-31T17:16:21.757Z,96214.58
2019-01-31T17:18:54.903Z,96219.10
2019-01-31T17:21:29.180Z,96221.77
2019-01-31T17:23:59.833Z,96221.59
2019-01-31T17:26:30.339Z,96210.92
2019-01-31T17:29:00.299Z,96210.92
2019-01-31T17:31:38.043Z,96214.58
2019-01-31T17:34:08.762Z,96227.13
2019-01-31T17:36:39.465Z,96212.91
2019-01-31T17:39:10.749Z,96207.55
2019-01-31T17:41:41.117Z,96207.55
2019-01-31T17:44:11.501Z,96216.08
2019-01-31T17:46:46.315Z,96213.84
2019-01-31T17:49:18.407Z,96205.92
2019-01-31T17:51:56.790Z,96211.80
2019-01-31T17:54:28.537Z,96196.11
2019-01-31T17:57:01.462Z,96196.11
2019-01-31T17:59:33.456Z,96200.55
2019-01-31T18:02:06.105Z,96200.55
2019-01-31T18:04:37.471Z,96207.15
2019-01-31T18:07:12.214Z,96210.47
2019-01-31T18:09:47.067Z,96200.63
2019-01-31T18:12:24.239Z,96200.63
2019-01-31T18:15:11.612Z,96223.92
2019-01-31T18:18:03.797Z,96222.34
2019-01-31T18:20:39.800Z,96227.84
2019-01-31T18:23:16.407Z,96227.76
2019-01-31T18:25:47.302Z,96244.92
2019-01-31T18:28:19.071Z,96238.92
2019-01-31T18:30:50.814Z,96238.92
2019-01-31T18:33:20.788Z,96241.48
2019-01-31T18:35:50.824Z,96241.48
2019-01-31T18:38:21.327Z,96236.03
2019-01-31T18:40:51.764Z,96236.03
2019-01-31T18:43:21.920Z,96247.02
2019-01-31T18:45:53.626Z,96230.92
2019-01-31T18:48:23.855Z,96245.88
2019-01-31T18:50:54.657Z,96234.45
2019-01-31T18:53:34.554Z,96235.27
2019-01-31T18:56:06.445Z,96233.67
2019-01-31T18:58:37.013Z,96253.44
2019-01-31T19:01:07.664Z,96244.29
2019-01-31T19:03:47.130Z,96248.54
2019-01-31T19:06:20.675Z,96248.54
2019-01-31T19:08:52.047Z,96250.77
2019-01-31T19:11:22.570Z,96231.77
2019-01-31T19:13:54.461Z,96230.23
2019-01-31T19:16:25.110Z,96231.24
2019-01-31T19:18:57.455Z,96228.93
2019-01-31T19:21:27.840Z,96231.78
2019-01-31T19:24:00.321Z,96225.77
2019-01-31T19:26:36.576Z,96217.73
2019-01-31T19:29:11.089Z,96222.04
2019-01-31T19:31:45.718Z,96222.04
2019-01-31T19:34:18.993Z,96231.95
2019-01-31T19:36:56.051Z,96231.95
2019-01-31T19:39:35.591Z,96231.19
2019-01-31T19:42:08.663Z,96220.45
2019-01-31T19:44:41.923Z,96211.09
2019-01-31T19:47:17.917Z,96204.42
2019-01-31T19:49:49.774Z,96222.80
2019-01-31T19:52:24.383Z,96220.92
2019-01-31T19:54:54.211Z,96221.77
2019-01-31T19:57:34.940Z,96207.00
2019-01-31T20:00:11.573Z,96212.00
2019-01-31T20:02:42.648Z,96211.67
2019-01-31T20:05:17.583Z,96216.30
2019-01-31T20:07:52.364Z,96225.28
2019-01-31T20:10:25.539Z,96216.92
2019-01-31T20:12:57.968Z,96206.03
2019-01-31T20:15:30.461Z,96199.58
2019-01-31T20:18:01.123Z,96194.59
2019-01-31T20:20:31.837Z,96194.59
2019-01-31T20:23:25.140Z,96179.20
2019-01-31T20:26:09.971Z,96179.20
2019-01-31T20:28:40.477Z,96189.33
2019-01-31T20:31:30.012Z,96196.80
2019-01-31T20:34:02.203Z,96202.35
2019-01-31T20:36:35.281Z,96202.35
2019-01-31T20:39:11.448Z,96217.20
2019-01-31T20:41:54.456Z,96203.61
2019-01-31T20:44:23.362Z,96203.61
2019-01-31T20:46:58.187Z,96209.69
2019-01-31T20:49:31.297Z,96192.98
2019-01-31T20:52:02.751Z,96192.98
2019-01-31T20:54:34.487Z,96206.91
2019-01-31T20:57:16.573Z,96193.26
2019-01-31T20:59:47.625Z,96193.26
2019-01-31T21:02:18.608Z,96200.80
2019-01-31T21:04:49.574Z,96200.80
2019-01-31T21:07:25.796Z,96190.99
2019-01-31T21:09:59.771Z,96190.99
2019-01-31T21:12:30.450Z,96213.67
2019-01-31T21:15:00.785Z,96203.41
2019-01-31T21:17:37.316Z,96200.22
2019-01-31T21:20:10.133Z,96179.39
2019-01-31T21:22:45.197Z,96183.53
2019-01-31T21:25:17.544Z,96183.53
2019-01-31T21:27:48.367Z,96189.00
2019-01-31T21:30:25.664Z,96189.00
2019-01-31T21:32:55.923Z,96194.02
2019-01-31T21:35:27.629Z,96203.22
2019-01-31T21:37:58.336Z,96211.22
2019-01-31T21:40:33.703Z,96203.31
2019-01-31T21:43:05.068Z,96203.31
2019-01-31T21:45:35.574Z,96208.33
2019-01-31T21:48:08.269Z,96208.33
2019-01-31T21:50:39.675Z,96210.11
2019-01-31T21:53:09.954Z,96212.73
2019-01-31T21:55:42.269Z,96207.13
2019-01-31T21:58:12.807Z,96195.03
2019-01-31T22:00:42.998Z,96185.44
2019-01-31T22:03:17.860Z,96185.44
2019-01-31T22:05:50.019Z,96191.87
2019-01-31T22:08:19.836Z,96191.87
2019-01-31T22:10:50.255Z,96182.52
2019-01-31T22:13:21.120Z,96184.36
2019-01-31T22:15:51.353Z,96184.36
2019-01-31T22:18:21.380Z,96173.45
2019-01-31T22:20:51.617Z,96174.27
2019-01-31T22:23:23.383Z,96174.27
2019-01-31T22:25:53.567Z,96176.75
2019-01-31T22:28:23.592Z,96173.23
2019-01-31T22:30:53.513Z,96179.92
2019-01-31T22:33:25.068Z,96176.05
2019-01-31T22:35:55.606Z,96176.05
2019-01-31T22:38:25.619Z,96170.51
2019-01-31T22:40:57.300Z,96170.51
2019-01-31T22:43:38.774Z,96176.12
2019-01-31T22:46:23.300Z,96176.12
2019-01-31T22:48:59.251Z,96173.81
2019-01-31T22:51:32.092Z,96161.12
2019-01-31T22:54:10.353Z,96161.12
2019-01-31T22:57:06.812Z,96157.41
2019-01-31T22:59:49.737Z,96157.41
2019-01-31T23:02:20.256Z,96160.91
2019-01-31T23:05:14.932Z,96160.22
2019-01-31T23:08:06.766Z,96160.22
2019-01-31T23:10:48.276Z,96165.76
2019-01-31T23:13:34.066Z,96174.66
2019-01-31T23:16:07.413Z,96174.27
2019-01-31T23:18:39.579Z,96172.62
2019-01-31T23:21:12.272Z,96183.66
2019-01-31T23:23:43.085Z,96178.70
2019-01-31T23:26:13.619Z,96180.70
2019-01-31T23:28:44.735Z,96180.70
2019-01-31T23:31:16.974Z,96174.63
2019-01-31T23:33:48.568Z,96175.09
2019-01-31T23:36:21.759Z,96180.56
2019-01-31T23:38:54.057Z,96175.36
2019-01-31T23:41:30.794Z,96174.52
2019-01-31T23:44:03.103Z,96169.56
2019-01-31T23:46:37.084Z,96168.73
2019-01-31T23:49:07.639Z,96145.08
2019-01-31T23:51:38.438Z,96151.94
2019-01-31T23:54:09.597Z,96157.80
2019-01-31T23:56:46.496Z,96144.61
2019-01-31T23:59:17.611Z,96141.33
